Airfield :
LOGIN :

Register | Disclaimer

   EN    FR    IT 

 










Legend :    VFR   Marginal VFR   IFR   Intensive IFR   Very Intensive IFR
Visi :
Ceiling :
>= 8 km
>= 3000ft
5 to 8 km
1000 to 3000 ft
1500m to 5 km
500 to 1000 ft
800 to 1500m
200 to 500 ft
< 800m
< 200 ft
Symbols :   Thunderstorms  Fog  Heavy snow  Heavy precipitations  Wind > 20 kt
SIGMETs :     Misc.  Thunderstorms  Icing  Turbulence  Mountain Waves  Volcanic Ashes







- Airport Elevation : 1197 ft
- IATA code : SPM


ETAD - Spangdahlem Ab

CURRENT METAR :
  • 230916Z AUTO 20019G26KT 9999 BKN041 BKN050 11/06 A2969 RMK AO2 SLP050 TSNO $

EXPIRED METARs :
  • 230901Z AUTO 20019G27KT 9999 FEW042 SCT055 BKN070 11/06 A2968 RMK AO2 SLP048 TSNO $
  • 230856Z AUTO 20019G27KT 9999 SCT055 SCT070 11/06 A2968 RMK AO2 PK WND 19028/51 SLP048 T01050059 52004 TSNO $
  • 230756Z AUTO 20018G23KT 9999 BKN095 10/06 A2968 RMK AO2 SLP047 T00960058 TSNO $
  • 230656Z AUTO 20014KT 9999 FEW090 09/06 A2968 RMK AO2 SLP048 T00890058 TSNO $

TAF AMD TAF ETAD
Valid from the 22 at 21:00 until the 24 at 01:00 UTC


222059Z 2221/2401 20009KT 9999 SKC QNH2963INS
BECMG 2303/2304 20012G20KT 9999 FEW020 QNH2964INS
BECMG 2307/2308 20015G25KT 9999 BKN050 QNH2970INS
TEMPO 2308/2315 21025G35KT 520004
BECMG 2318/2319 23012G20KT 9000 -SHRA BKN020 QNH2980INS TX14/2314Z TN03/2300Z LAST NO AMDS AFT 2221 NEXT 2503
No reported NOTAMs for that airfield.
1 SIGMET reported for the Langen FIR (EDGG) :
 
Severe turbulence
EDGG SIGMET 1 VALID 230645/231000 EDZF
EDGG LANGEN FIR SEV TURB FCST APRX 80NM WID LINE BTN N4912 E00644 - N5116 E01021 2000FT/5000FT STNR NC=



MET'MAP, your aeronautical weather chart ! - Copyright ORBIFLY December 2007 - Disclaimer

ORBIFLY MET'MAP TEAM :

Programming & Development : Alexandra Zaïnal
Concept & Development : Baudouin d'Aumeries
Co-Development & Prog : Marc-Olivier Méhu
Technical & hardware support : Manuel Goepfert

Contact : metmap@orbifly.com




SOURCES & CREDITS :

   NOAA